createdAt,value
2023-01-21T00:00:50.037Z,64.19
2023-01-21T00:01:55.739Z,63.13
2023-01-21T00:02:57.667Z,61.95
2023-01-21T00:04:00.119Z,60.92
2023-01-21T00:05:02.019Z,59.97
2023-01-21T00:06:04.607Z,59.18
2023-01-21T00:07:07.819Z,58.12
2023-01-21T00:08:09.738Z,58.02
2023-01-21T00:09:11.871Z,58.90
2023-01-21T00:10:14.090Z,60.27
2023-01-21T00:11:16.318Z,61.74
2023-01-21T00:12:18.232Z,63.20
2023-01-21T00:13:20.166Z,64.68
2023-01-21T00:14:22.114Z,64.98
2023-01-21T00:15:24.127Z,64.41
2023-01-21T00:16:26.145Z,63.38
2023-01-21T00:17:27.995Z,62.18
2023-01-21T00:18:30.275Z,61.23
2023-01-21T00:19:32.465Z,60.25
2023-01-21T00:20:35.559Z,59.50
2023-01-21T00:21:37.398Z,58.51
2023-01-21T00:22:39.751Z,58.01
2023-01-21T00:23:41.686Z,58.61
2023-01-21T00:24:43.544Z,59.86
2023-01-21T00:25:45.573Z,61.18
2023-01-21T00:26:47.457Z,62.66
2023-01-21T00:27:49.666Z,64.16
2023-01-21T00:28:51.746Z,64.80
2023-01-21T00:29:53.732Z,64.28
2023-01-21T00:31:00.604Z,63.33
2023-01-21T00:32:02.514Z,62.21
2023-01-21T00:33:05.049Z,61.12
2023-01-21T00:34:06.926Z,60.12
2023-01-21T00:35:09.475Z,59.29
2023-01-21T00:36:13.952Z,58.26
2023-01-21T00:37:15.844Z,58.16
2023-01-21T00:38:17.641Z,59.08
2023-01-21T00:39:19.540Z,60.38
2023-01-21T00:40:22.011Z,61.78
2023-01-21T00:41:27.255Z,63.29
2023-01-21T00:42:29.111Z,64.61
2023-01-21T00:43:31.499Z,64.76
2023-01-21T00:44:33.362Z,64.14
2023-01-21T00:45:35.261Z,63.02
2023-01-21T00:46:37.333Z,62.05
2023-01-21T00:47:39.731Z,61.08
2023-01-21T00:48:42.134Z,60.09
2023-01-21T00:49:43.994Z,59.35
2023-01-21T00:50:45.833Z,58.40
2023-01-21T00:51:47.587Z,58.17
2023-01-21T00:52:49.473Z,58.97
2023-01-21T00:53:51.257Z,60.29
2023-01-21T00:54:53.134Z,61.70
2023-01-21T00:56:02.309Z,63.21
2023-01-21T00:57:06.785Z,64.68
2023-01-21T00:58:09.093Z,64.76
2023-01-21T00:59:11.056Z,64.05
2023-01-21T01:00:15.207Z,62.95
2023-01-21T01:01:20.282Z,61.76
2023-01-21T01:02:22.312Z,60.74
2023-01-21T01:03:24.189Z,59.98
2023-01-21T01:04:25.987Z,59.23
2023-01-21T01:05:27.814Z,58.28
2023-01-21T01:06:29.610Z,58.28
2023-01-21T01:07:31.578Z,59.25
2023-01-21T01:08:33.399Z,60.53
2023-01-21T01:09:35.215Z,61.97
2023-01-21T01:10:37.724Z,63.49
2023-01-21T01:11:39.674Z,64.80
2023-01-21T01:12:41.780Z,64.88
2023-01-21T01:13:44.189Z,64.21
2023-01-21T01:14:47.502Z,63.16
2023-01-21T01:15:52.244Z,61.97
2023-01-21T01:16:54.252Z,60.88
2023-01-21T01:17:56.916Z,60.02
2023-01-21T01:18:58.778Z,59.27
2023-01-21T01:20:00.625Z,58.28
2023-01-21T01:21:04.654Z,58.19
2023-01-21T01:22:06.469Z,59.13
2023-01-21T01:23:08.591Z,60.40
2023-01-21T01:24:10.478Z,61.73
2023-01-21T01:25:13.218Z,63.19
2023-01-21T01:26:17.788Z,64.73
2023-01-21T01:27:19.751Z,65.07
2023-01-21T01:28:21.773Z,64.45
2023-01-21T01:29:23.504Z,63.40
2023-01-21T01:30:25.524Z,62.32
2023-01-21T01:31:27.491Z,61.34
2023-01-21T01:32:29.464Z,60.37
2023-01-21T01:33:31.331Z,59.52
2023-01-21T01:34:33.161Z,58.55
2023-01-21T01:35:34.906Z,58.13
2023-01-21T01:36:36.760Z,58.78
2023-01-21T01:37:38.553Z,59.87
2023-01-21T01:38:41.970Z,61.40
2023-01-21T01:39:43.819Z,62.80
2023-01-21T01:40:46.294Z,64.41
2023-01-21T01:41:48.311Z,65.16
2023-01-21T01:42:50.008Z,64.79
2023-01-21T01:44:04.950Z,63.98
2023-01-21T01:45:18.903Z,62.68
2023-01-21T01:46:22.318Z,61.50
2023-01-21T01:47:37.717Z,60.59
2023-01-21T01:48:43.051Z,59.65
2023-01-21T01:49:44.907Z,58.95
2023-01-21T01:50:48.858Z,58.21
2023-01-21T01:51:59.703Z,58.61
2023-01-21T01:53:02.307Z,59.95
2023-01-21T01:54:05.758Z,61.43
2023-01-21T01:55:11.153Z,62.92
2023-01-21T01:56:14.995Z,64.62
2023-01-21T01:57:22.499Z,65.14
2023-01-21T01:58:24.990Z,64.62
2023-01-21T01:59:29.076Z,63.54
2023-01-21T02:00:31.419Z,62.42
2023-01-21T02:01:33.510Z,61.48
2023-01-21T02:02:36.488Z,60.63
2023-01-21T02:03:46.178Z,59.79
2023-01-21T02:04:53.163Z,58.82
2023-01-21T02:05:55.911Z,58.16
2023-01-21T02:06:58.347Z,58.74
2023-01-21T02:08:01.254Z,59.99
2023-01-21T02:09:03.920Z,61.47
2023-01-21T02:10:12.454Z,62.95
2023-01-21T02:11:20.557Z,64.49
2023-01-21T02:12:23.037Z,65.00
2023-01-21T02:13:27.939Z,64.41
2023-01-21T02:14:33.228Z,63.37
2023-01-21T02:15:53.665Z,62.23
2023-01-21T02:17:07.392Z,61.07
2023-01-21T02:18:43.647Z,60.10
2023-01-21T02:20:00.391Z,58.98
2023-01-21T02:21:35.715Z,58.24
2023-01-21T02:22:56.614Z,59.62
2023-01-21T02:24:13.753Z,61.53
2023-01-21T02:25:52.626Z,63.48
2023-01-21T02:27:12.317Z,65.00
2023-01-21T02:28:48.043Z,64.32
2023-01-21T02:30:15.243Z,62.72
2023-01-21T02:31:36.030Z,61.37
2023-01-21T02:32:52.928Z,60.26
2023-01-21T02:34:16.545Z,59.37
2023-01-21T02:35:45.672Z,58.29
2023-01-21T02:36:59.820Z,58.93
2023-01-21T02:38:11.759Z,60.51
2023-01-21T02:39:42.100Z,62.36
2023-01-21T02:40:56.962Z,64.61
2023-01-21T02:42:37.147Z,65.00
2023-01-21T02:44:07.879Z,63.69
2023-01-21T02:45:21.950Z,62.17
2023-01-21T02:46:50.183Z,61.00
2023-01-21T02:48:20.056Z,59.88
2023-01-21T02:49:43.005Z,58.77
2023-01-21T02:50:49.429Z,58.28
2023-01-21T02:51:51.376Z,59.26
2023-01-21T02:52:58.601Z,60.55
2023-01-21T02:54:00.464Z,62.21
2023-01-21T02:55:03.929Z,64.00
2023-01-21T02:56:12.368Z,65.09
2023-01-21T02:57:23.740Z,65.04
2023-01-21T02:58:32.674Z,64.03
2023-01-21T02:59:37.047Z,62.81
2023-01-21T03:00:58.402Z,61.77
2023-01-21T03:02:29.822Z,60.64
2023-01-21T03:04:09.909Z,59.68
2023-01-21T03:05:33.177Z,58.53
2023-01-21T03:07:13.523Z,58.70
2023-01-21T03:08:31.462Z,60.77
2023-01-21T03:09:34.450Z,62.69
2023-01-21T03:10:49.055Z,64.35
2023-01-21T03:12:21.772Z,65.05
2023-01-21T03:14:13.066Z,64.11
2023-01-21T03:15:45.366Z,62.34
2023-01-21T03:17:03.687Z,60.96
2023-01-21T03:18:24.682Z,60.01
2023-01-21T03:20:02.182Z,59.17
2023-01-21T03:21:22.033Z,58.30
2023-01-21T03:22:33.101Z,59.39
2023-01-21T03:23:39.541Z,61.03
2023-01-21T03:24:46.823Z,62.76
2023-01-21T03:25:51.074Z,64.50
2023-01-21T03:26:57.360Z,65.13
2023-01-21T03:28:04.788Z,64.66
2023-01-21T03:29:15.103Z,63.67
2023-01-21T03:30:20.141Z,62.51
2023-01-21T03:31:31.358Z,61.57
2023-01-21T03:32:36.426Z,60.69
2023-01-21T03:33:46.817Z,59.94
2023-01-21T03:34:54.876Z,59.20
2023-01-21T03:36:03.276Z,58.32
2023-01-21T03:37:15.937Z,58.58
2023-01-21T03:38:38.588Z,60.03
2023-01-21T03:39:59.590Z,61.98
2023-01-21T03:41:16.579Z,64.23
2023-01-21T03:42:18.689Z,65.14
2023-01-21T03:43:21.057Z,64.74
2023-01-21T03:44:23.135Z,63.84
2023-01-21T03:45:45.709Z,62.96
2023-01-21T03:46:56.666Z,61.62
2023-01-21T03:48:06.584Z,60.80
2023-01-21T03:49:19.068Z,60.17
2023-01-21T03:50:29.992Z,59.51
2023-01-21T03:51:39.053Z,58.66
2023-01-21T03:52:43.403Z,58.49
2023-01-21T03:53:45.604Z,59.47
2023-01-21T03:54:49.217Z,60.95
2023-01-21T03:55:51.929Z,62.43
2023-01-21T03:56:53.985Z,64.31
2023-01-21T03:57:56.217Z,65.31
2023-01-21T03:58:58.043Z,65.16
2023-01-21T04:00:00.078Z,64.38
2023-01-21T04:01:02.301Z,63.35
2023-01-21T04:02:04.251Z,62.44
2023-01-21T04:03:06.081Z,61.61
2023-01-21T04:04:09.536Z,60.94
2023-01-21T04:05:11.246Z,60.20
2023-01-21T04:06:18.093Z,59.62
2023-01-21T04:07:19.968Z,58.84
2023-01-21T04:08:21.780Z,58.32
2023-01-21T04:09:23.725Z,58.87
2023-01-21T04:10:25.466Z,60.27
2023-01-21T04:11:27.285Z,61.89
2023-01-21T04:12:29.161Z,63.55
2023-01-21T04:13:30.975Z,65.06
2023-01-21T04:14:32.816Z,65.38
2023-01-21T04:15:34.689Z,64.85
2023-01-21T04:16:36.581Z,63.96
2023-01-21T04:17:38.784Z,62.84
2023-01-21T04:18:40.642Z,61.94
2023-01-21T04:19:42.563Z,61.11
2023-01-21T04:20:46.681Z,60.33
2023-01-21T04:21:48.603Z,59.69
2023-01-21T04:22:50.843Z,59.09
2023-01-21T04:23:52.548Z,58.48
2023-01-21T04:24:54.367Z,58.91
2023-01-21T04:25:56.566Z,60.30
2023-01-21T04:26:58.403Z,61.77
2023-01-21T04:28:00.216Z,63.45
2023-01-21T04:29:02.188Z,64.99
2023-01-21T04:30:04.463Z,65.48
2023-01-21T04:31:06.295Z,65.04
2023-01-21T04:32:08.223Z,64.23
2023-01-21T04:33:10.148Z,63.22
2023-01-21T04:34:12.004Z,62.27
2023-01-21T04:35:13.816Z,61.44
2023-01-21T04:36:15.580Z,60.91
2023-01-21T04:37:17.342Z,60.34
2023-01-21T04:38:19.122Z,59.81
2023-01-21T04:39:20.859Z,59.25
2023-01-21T04:40:22.733Z,58.50
2023-01-21T04:41:25.550Z,58.63
2023-01-21T04:42:27.701Z,59.80
2023-01-21T04:43:29.364Z,61.35
2023-01-21T04:44:31.253Z,63.53
2023-01-21T04:45:33.192Z,65.45
2023-01-21T04:46:35.147Z,65.84
2023-01-21T04:47:42.272Z,65.36
2023-01-21T04:48:44.080Z,64.48
2023-01-21T04:49:46.350Z,63.40
2023-01-21T04:50:48.270Z,62.43
2023-01-21T04:51:50.079Z,61.54
2023-01-21T04:52:51.942Z,60.85
2023-01-21T04:53:53.662Z,60.34
2023-01-21T04:54:55.858Z,59.85
2023-01-21T04:55:57.925Z,59.63
2023-01-21T04:56:59.612Z,59.14
2023-01-21T04:58:01.358Z,58.44
2023-01-21T04:59:04.328Z,58.78
2023-01-21T05:00:08.500Z,60.19
2023-01-21T05:01:10.295Z,61.92
2023-01-21T05:02:12.154Z,63.67
2023-01-21T05:03:14.310Z,65.11
2023-01-21T05:04:16.209Z,65.56
2023-01-21T05:05:18.097Z,65.10
2023-01-21T05:06:19.918Z,64.29
2023-01-21T05:07:21.914Z,63.27
2023-01-21T05:08:23.734Z,62.46
2023-01-21T05:09:25.715Z,62.09
2023-01-21T05:10:28.041Z,61.40
2023-01-21T05:11:30.381Z,60.69
2023-01-21T05:12:32.737Z,60.07
2023-01-21T05:13:34.647Z,59.58
2023-01-21T05:14:36.436Z,58.96
2023-01-21T05:15:38.898Z,58.37
2023-01-21T05:16:40.762Z,58.91
2023-01-21T05:17:42.536Z,60.31
2023-01-21T05:18:46.729Z,62.01
2023-01-21T05:19:50.850Z,63.71
2023-01-21T05:20:52.741Z,65.17
2023-01-21T05:21:54.720Z,65.23
2023-01-21T05:22:56.758Z,64.56
2023-01-21T05:23:58.609Z,63.54
2023-01-21T05:25:00.769Z,62.60
2023-01-21T05:26:03.502Z,61.74
2023-01-21T05:27:05.573Z,60.98
2023-01-21T05:28:07.465Z,60.35
2023-01-21T05:29:09.736Z,59.88
2023-01-21T05:30:11.819Z,59.27
2023-01-21T05:31:13.962Z,58.48
2023-01-21T05:32:16.134Z,58.69
2023-01-21T05:33:18.027Z,59.74
2023-01-21T05:34:19.921Z,61.22
2023-01-21T05:35:24.062Z,62.77
2023-01-21T05:36:26.592Z,64.59
2023-01-21T05:37:28.324Z,65.23
2023-01-21T05:38:30.392Z,64.93
2023-01-21T05:39:32.614Z,64.26
2023-01-21T05:40:34.368Z,63.28
2023-01-21T05:41:36.188Z,62.29
2023-01-21T05:42:37.890Z,61.38
2023-01-21T05:43:39.719Z,60.72
2023-01-21T05:44:41.591Z,60.13
2023-01-21T05:45:43.464Z,59.91
2023-01-21T05:46:45.191Z,59.40
2023-01-21T05:47:47.107Z,58.63
2023-01-21T05:48:48.841Z,58.52
2023-01-21T05:49:50.530Z,59.48
2023-01-21T05:50:52.377Z,60.97
2023-01-21T05:51:54.254Z,62.51
2023-01-21T05:52:55.983Z,64.37
2023-01-21T05:53:58.036Z,65.37
2023-01-21T05:55:02.331Z,65.15
2023-01-21T05:56:05.288Z,64.26
2023-01-21T05:57:07.050Z,63.22
2023-01-21T05:58:09.659Z,62.25
2023-01-21T05:59:11.555Z,61.39
2023-01-21T06:00:14.148Z,60.74
2023-01-21T06:01:15.897Z,60.15
2023-01-21T06:02:17.824Z,59.62
2023-01-21T06:03:19.927Z,58.98
2023-01-21T06:04:23.941Z,58.41
2023-01-21T06:05:25.913Z,59.00
2023-01-21T06:06:27.966Z,60.26
2023-01-21T06:07:29.756Z,61.69
2023-01-21T06:08:31.872Z,63.43
2023-01-21T06:09:33.814Z,64.85
2023-01-21T06:10:36.111Z,65.33
2023-01-21T06:11:37.926Z,64.77
2023-01-21T06:12:39.744Z,63.81
2023-01-21T06:13:41.534Z,62.80
2023-01-21T06:14:43.321Z,61.89
2023-01-21T06:15:45.102Z,61.00
2023-01-21T06:16:47.297Z,60.30
2023-01-21T06:17:49.129Z,59.74
2023-01-21T06:18:50.964Z,59.09
2023-01-21T06:19:52.828Z,58.42
2023-01-21T06:20:54.793Z,58.80
2023-01-21T06:21:56.940Z,59.86
2023-01-21T06:23:01.704Z,61.37
2023-01-21T06:24:03.771Z,62.99
2023-01-21T06:25:05.993Z,64.60
2023-01-21T06:26:07.852Z,65.16
2023-01-21T06:27:09.970Z,64.71
2023-01-21T06:28:12.823Z,63.85
2023-01-21T06:29:14.784Z,62.79
2023-01-21T06:30:17.353Z,61.77
2023-01-21T06:31:19.462Z,60.89
2023-01-21T06:32:21.413Z,60.11
2023-01-21T06:33:23.391Z,59.47
2023-01-21T06:34:25.498Z,58.67
2023-01-21T06:35:27.363Z,58.38
2023-01-21T06:36:30.279Z,59.14
2023-01-21T06:37:33.039Z,60.52
2023-01-21T06:38:36.302Z,61.90
2023-01-21T06:39:38.914Z,63.58
2023-01-21T06:40:40.972Z,64.89
2023-01-21T06:41:42.743Z,64.97
2023-01-21T06:42:48.888Z,64.26
2023-01-21T06:43:50.663Z,63.21
2023-01-21T06:44:52.486Z,62.43
2023-01-21T06:45:54.441Z,61.55
2023-01-21T06:47:00.924Z,60.82
2023-01-21T06:48:03.162Z,60.19
2023-01-21T06:49:05.038Z,59.62
2023-01-21T06:50:07.096Z,58.97
2023-01-21T06:51:08.992Z,58.38
2023-01-21T06:52:10.797Z,58.94
2023-01-21T06:53:12.929Z,60.19
2023-01-21T06:54:14.743Z,61.67
2023-01-21T06:55:16.906Z,63.20
2023-01-21T06:56:18.844Z,64.70
2023-01-21T06:57:20.755Z,65.06
2023-01-21T06:58:22.573Z,64.54
2023-01-21T06:59:24.441Z,63.65
2023-01-21T07:00:26.305Z,62.81
2023-01-21T07:01:29.813Z,61.97
2023-01-21T07:02:33.438Z,61.03
2023-01-21T07:03:35.350Z,60.29
2023-01-21T07:04:37.148Z,59.64
2023-01-21T07:05:38.925Z,58.94
2023-01-21T07:06:41.055Z,58.34
2023-01-21T07:07:42.859Z,58.82
2023-01-21T07:08:44.566Z,60.08
2023-01-21T07:09:46.581Z,61.57
2023-01-21T07:10:48.838Z,63.28
2023-01-21T07:11:51.038Z,64.81
2023-01-21T07:12:53.011Z,65.15
2023-01-21T07:13:55.057Z,64.59
2023-01-21T07:14:57.348Z,63.64
2023-01-21T07:16:01.073Z,62.57
2023-01-21T07:17:03.151Z,61.63
2023-01-21T07:18:04.952Z,60.87
2023-01-21T07:19:08.000Z,60.20
2023-01-21T07:20:12.330Z,59.54
2023-01-21T07:21:14.156Z,58.72
2023-01-21T07:22:16.256Z,58.36
2023-01-21T07:23:17.989Z,59.13
2023-01-21T07:24:20.293Z,60.60
2023-01-21T07:25:22.253Z,62.16
2023-01-21T07:26:24.070Z,63.67
2023-01-21T07:27:26.671Z,64.91
2023-01-21T07:28:28.474Z,65.02
2023-01-21T07:29:30.293Z,64.35
2023-01-21T07:30:32.139Z,63.38
2023-01-21T07:31:34.508Z,62.43
2023-01-21T07:32:36.492Z,61.54
2023-01-21T07:33:38.183Z,60.75
2023-01-21T07:34:40.026Z,60.10
2023-01-21T07:35:41.791Z,59.52
2023-01-21T07:36:43.632Z,58.79
2023-01-21T07:37:45.560Z,58.35
2023-01-21T07:38:47.289Z,59.07
2023-01-21T07:39:49.262Z,60.39
2023-01-21T07:40:51.119Z,61.93
2023-01-21T07:41:53.507Z,63.71
2023-01-21T07:42:56.487Z,65.03
2023-01-21T07:43:59.146Z,65.12
2023-01-21T07:45:03.822Z,64.43
2023-01-21T07:46:06.443Z,63.37
2023-01-21T07:47:08.262Z,62.30
2023-01-21T07:48:10.868Z,61.40
2023-01-21T07:49:17.164Z,60.57
2023-01-21T07:50:19.101Z,59.81
2023-01-21T07:51:22.133Z,59.23
2023-01-21T07:52:24.180Z,58.42
2023-01-21T07:53:26.945Z,58.45
2023-01-21T07:54:28.695Z,59.46
2023-01-21T07:55:31.543Z,61.01
2023-01-21T07:56:33.318Z,62.65
2023-01-21T07:57:35.496Z,64.31
2023-01-21T07:58:38.469Z,65.42
2023-01-21T07:59:40.256Z,65.23
2023-01-21T08:00:41.995Z,64.44
2023-01-21T08:01:43.933Z,63.43
2023-01-21T08:02:45.905Z,62.44
2023-01-21T08:03:47.785Z,61.54
2023-01-21T08:04:49.824Z,60.84
2023-01-21T08:05:52.175Z,60.23
2023-01-21T08:06:57.259Z,59.65
2023-01-21T08:07:59.766Z,59.01
2023-01-21T08:09:01.700Z,58.42
2023-01-21T08:10:03.783Z,58.93
2023-01-21T08:11:05.629Z,60.25
2023-01-21T08:12:08.931Z,61.70
2023-01-21T08:13:11.204Z,63.35
2023-01-21T08:14:13.026Z,64.83
2023-01-21T08:15:15.177Z,65.14
2023-01-21T08:16:17.448Z,64.56
2023-01-21T08:17:19.404Z,63.60
2023-01-21T08:18:23.324Z,62.67
2023-01-21T08:19:25.411Z,61.82
2023-01-21T08:20:27.658Z,60.88
2023-01-21T08:21:29.561Z,60.15
2023-01-21T08:22:32.077Z,59.55
2023-01-21T08:23:34.628Z,58.80
2023-01-21T08:24:36.552Z,58.35
2023-01-21T08:25:38.372Z,58.99
2023-01-21T08:26:40.127Z,60.32
2023-01-21T08:27:41.982Z,61.86
2023-01-21T08:28:43.871Z,63.52
2023-01-21T08:29:46.918Z,64.84
2023-01-21T08:30:49.004Z,65.06
2023-01-21T08:31:51.003Z,64.41
2023-01-21T08:32:52.818Z,63.42
2023-01-21T08:33:54.878Z,62.39
2023-01-21T08:34:57.275Z,61.45
2023-01-21T08:36:01.131Z,60.67
2023-01-21T08:37:02.963Z,60.05
2023-01-21T08:38:04.833Z,59.50
2023-01-21T08:39:06.549Z,58.78
2023-01-21T08:40:09.134Z,58.37
2023-01-21T08:41:11.087Z,59.11
2023-01-21T08:42:12.862Z,60.44
2023-01-21T08:43:14.575Z,61.93
2023-01-21T08:44:16.403Z,63.50
2023-01-21T08:45:18.326Z,64.92
2023-01-21T08:46:20.250Z,65.05
2023-01-21T08:47:22.028Z,64.39
2023-01-21T08:48:24.304Z,63.41
2023-01-21T08:49:26.088Z,62.34
2023-01-21T08:50:28.079Z,61.41
2023-01-21T08:51:29.891Z,60.62
2023-01-21T08:52:31.889Z,59.88
2023-01-21T08:53:33.760Z,59.27
2023-01-21T08:54:35.684Z,58.47
2023-01-21T08:55:37.439Z,58.56
2023-01-21T08:56:39.247Z,59.63
2023-01-21T08:57:41.051Z,61.02
2023-01-21T08:58:42.927Z,62.55
2023-01-21T08:59:44.751Z,64.21
2023-01-21T09:00:46.591Z,65.02
2023-01-21T09:01:48.523Z,64.77
2023-01-21T09:02:51.755Z,63.92
2023-01-21T09:03:59.002Z,62.85
2023-01-21T09:05:00.778Z,61.76
2023-01-21T09:06:04.053Z,60.89
2023-01-21T09:07:05.779Z,60.17
2023-01-21T09:08:07.504Z,59.54
2023-01-21T09:09:11.160Z,58.72
2023-01-21T09:10:33.561Z,58.28
2023-01-21T09:11:35.731Z,59.43
2023-01-21T09:12:39.752Z,60.83
2023-01-21T09:13:43.076Z,62.27
2023-01-21T09:14:44.927Z,64.02
2023-01-21T09:15:46.901Z,65.03
2023-01-21T09:16:49.775Z,64.87
2023-01-21T09:17:51.953Z,64.01
2023-01-21T09:18:53.708Z,63.01
2023-01-21T09:19:55.617Z,61.95
2023-01-21T09:21:01.870Z,60.99
2023-01-21T09:22:03.590Z,60.10
2023-01-21T09:23:26.213Z,59.47
2023-01-21T09:24:28.098Z,58.41
2023-01-21T09:25:30.180Z,58.44
2023-01-21T09:26:32.283Z,59.42
2023-01-21T09:27:34.036Z,60.78
2023-01-21T09:28:38.678Z,62.30
2023-01-21T09:29:41.577Z,64.00
2023-01-21T09:30:43.604Z,64.96
2023-01-21T09:31:45.449Z,64.82
2023-01-21T09:32:47.222Z,64.00
2023-01-21T09:33:58.233Z,62.96
2023-01-21T09:35:00.093Z,61.80
2023-01-21T09:36:04.914Z,60.94
2023-01-21T09:37:06.627Z,60.15
2023-01-21T09:38:08.934Z,59.49
2023-01-21T09:39:10.760Z,58.67
2023-01-21T09:40:16.906Z,58.33
2023-01-21T09:41:26.452Z,59.20
2023-01-21T09:42:33.639Z,60.82
2023-01-21T09:43:44.713Z,62.51
2023-01-21T09:44:51.758Z,64.32
2023-01-21T09:45:59.169Z,64.95
2023-01-21T09:47:17.822Z,64.38
2023-01-21T09:48:31.368Z,63.13
2023-01-21T09:49:37.239Z,61.86
2023-01-21T09:50:42.512Z,60.84
2023-01-21T09:51:54.502Z,59.99
2023-01-21T09:53:17.976Z,59.14
2023-01-21T09:54:26.557Z,58.20
2023-01-21T09:55:49.701Z,58.83
2023-01-21T09:57:18.449Z,60.61
2023-01-21T09:58:50.305Z,62.74
2023-01-21T10:00:41.776Z,64.69
2023-01-21T10:01:45.029Z,64.17
2023-01-21T10:03:24.952Z,63.10
2023-01-21T10:04:58.389Z,61.41
2023-01-21T10:06:31.181Z,60.11
2023-01-21T10:07:45.738Z,58.92
2023-01-21T10:09:17.058Z,58.15
2023-01-21T10:10:53.002Z,59.18
2023-01-21T10:12:09.865Z,61.38
2023-01-21T10:13:40.640Z,63.35
2023-01-21T10:14:51.179Z,64.80
2023-01-21T10:16:13.161Z,64.32
2023-01-21T10:17:42.100Z,62.96
2023-01-21T10:18:48.713Z,61.42
2023-01-21T10:20:06.186Z,60.42
2023-01-21T10:21:26.104Z,59.49
2023-01-21T10:22:28.810Z,58.35
2023-01-21T10:23:43.071Z,58.39
2023-01-21T10:24:55.430Z,59.66
2023-01-21T10:26:05.941Z,61.14
2023-01-21T10:27:16.495Z,62.70
2023-01-21T10:28:28.381Z,64.31
2023-01-21T10:29:30.300Z,64.72
2023-01-21T10:30:42.420Z,64.06
2023-01-21T10:31:54.407Z,62.83
2023-01-21T10:32:56.706Z,61.62
2023-01-21T10:33:58.487Z,60.68
2023-01-21T10:35:21.103Z,59.91
2023-01-21T10:36:44.035Z,58.84
2023-01-21T10:37:59.804Z,58.33
2023-01-21T10:39:20.489Z,59.41
2023-01-21T10:40:55.921Z,61.24
2023-01-21T10:42:12.797Z,63.68
2023-01-21T10:43:43.700Z,64.89
2023-01-21T10:44:51.185Z,64.17
2023-01-21T10:46:00.215Z,63.02
2023-01-21T10:47:20.047Z,61.84
2023-01-21T10:48:29.008Z,60.54
2023-01-21T10:50:17.710Z,59.61
2023-01-21T10:51:32.034Z,58.26
2023-01-21T10:52:53.482Z,58.85
2023-01-21T10:54:22.575Z,60.52
2023-01-21T10:56:00.556Z,62.69
2023-01-21T10:57:23.248Z,64.72
2023-01-21T10:58:41.129Z,64.43
2023-01-21T10:59:43.256Z,63.14
2023-01-21T11:00:50.413Z,62.00
2023-01-21T11:02:21.456Z,60.84
2023-01-21T11:03:32.888Z,59.56
2023-01-21T11:04:39.409Z,58.48
2023-01-21T11:05:41.526Z,58.26
2023-01-21T11:06:47.920Z,59.07
2023-01-21T11:07:51.750Z,60.49
2023-01-21T11:09:03.105Z,61.91
2023-01-21T11:10:06.842Z,63.65
2023-01-21T11:11:10.387Z,64.66
2023-01-21T11:12:18.159Z,64.39
2023-01-21T11:13:20.016Z,63.40
2023-01-21T11:14:25.160Z,62.35
2023-01-21T11:15:33.454Z,61.17
2023-01-21T11:16:43.054Z,60.02
2023-01-21T11:17:47.981Z,59.03
2023-01-21T11:18:50.245Z,58.10
2023-01-21T11:19:59.871Z,58.24
2023-01-21T11:21:19.675Z,59.34
2023-01-21T11:22:23.465Z,61.02
2023-01-21T11:23:31.212Z,62.46
2023-01-21T11:24:44.385Z,64.06
2023-01-21T11:25:49.044Z,64.64
2023-01-21T11:26:54.898Z,63.94
2023-01-21T11:27:56.979Z,62.77
2023-01-21T11:29:11.192Z,61.68
2023-01-21T11:30:48.224Z,60.52
2023-01-21T11:32:03.049Z,59.32
2023-01-21T11:33:27.250Z,58.26
2023-01-21T11:34:30.368Z,58.69
2023-01-21T11:35:32.299Z,59.84
2023-01-21T11:36:34.801Z,61.09
2023-01-21T11:37:38.391Z,62.38
2023-01-21T11:38:41.282Z,63.84
2023-01-21T11:39:54.631Z,64.64
2023-01-21T11:41:10.692Z,64.06
2023-01-21T11:42:19.060Z,62.72
2023-01-21T11:43:35.805Z,61.50
2023-01-21T11:44:51.147Z,60.26
2023-01-21T11:45:57.028Z,59.14
2023-01-21T11:46:59.749Z,58.19
2023-01-21T11:48:02.008Z,58.26
2023-01-21T11:49:06.665Z,59.20
2023-01-21T11:50:16.572Z,60.50
2023-01-21T11:51:18.904Z,61.91
2023-01-21T11:52:21.334Z,63.14
2023-01-21T11:53:23.072Z,64.27
2023-01-21T11:54:24.800Z,64.21
2023-01-21T11:55:27.696Z,63.37
2023-01-21T11:56:29.514Z,62.26
2023-01-21T11:57:33.606Z,61.24
2023-01-21T11:58:40.349Z,60.31
2023-01-21T11:59:47.853Z,59.43
2023-01-21T12:00:53.872Z,58.27
2023-01-21T12:02:05.643Z,57.99
2023-01-21T12:03:14.828Z,58.99
2023-01-21T12:04:17.038Z,60.46
2023-01-21T12:05:35.697Z,61.77
2023-01-21T12:06:45.017Z,63.41
2023-01-21T12:07:51.197Z,64.23
2023-01-21T12:09:00.399Z,63.73
2023-01-21T12:10:38.226Z,62.54
2023-01-21T12:11:40.140Z,60.78
2023-01-21T12:12:54.442Z,59.78
2023-01-21T12:14:22.873Z,58.49
2023-01-21T12:15:45.927Z,57.91
2023-01-21T12:17:01.699Z,59.12
2023-01-21T12:18:50.047Z,60.79
2023-01-21T12:20:13.213Z,63.43
2023-01-21T12:21:43.430Z,64.74
2023-01-21T12:23:17.264Z,63.76
2023-01-21T12:24:44.188Z,61.82
2023-01-21T12:26:15.267Z,60.27
2023-01-21T12:27:28.914Z,58.72
2023-01-21T12:28:50.343Z,57.83
2023-01-21T12:30:12.532Z,58.58
2023-01-21T12:31:27.115Z,60.11
2023-01-21T12:32:49.894Z,61.60
2023-01-21T12:33:51.756Z,63.09
2023-01-21T12:34:58.635Z,64.28
2023-01-21T12:36:15.581Z,64.10
2023-01-21T12:37:46.791Z,62.82
2023-01-21T12:39:06.469Z,60.94
2023-01-21T12:40:27.529Z,59.59
2023-01-21T12:41:33.067Z,58.13
2023-01-21T12:42:43.551Z,57.84
2023-01-21T12:44:16.007Z,58.80
2023-01-21T12:45:27.707Z,60.69
2023-01-21T12:46:36.904Z,62.17
2023-01-21T12:47:53.236Z,63.52
2023-01-21T12:49:28.285Z,63.79
2023-01-21T12:50:39.771Z,62.33
2023-01-21T12:52:11.283Z,61.08
2023-01-21T12:53:36.260Z,59.64
2023-01-21T12:54:55.766Z,58.33
2023-01-21T12:56:09.755Z,58.08
2023-01-21T12:57:56.915Z,59.00
2023-01-21T12:59:08.095Z,61.21
2023-01-21T13:00:10.228Z,62.70
2023-01-21T13:01:32.012Z,63.98
2023-01-21T13:02:54.253Z,64.18
2023-01-21T13:04:16.186Z,62.90
2023-01-21T13:05:29.951Z,61.27
2023-01-21T13:06:54.140Z,60.05
2023-01-21T13:08:29.072Z,58.83
2023-01-21T13:09:56.622Z,58.17
2023-01-21T13:11:14.073Z,59.29
2023-01-21T13:12:29.554Z,60.75
2023-01-21T13:13:41.806Z,62.09
2023-01-21T13:14:49.942Z,63.68
2023-01-21T13:15:59.881Z,64.62
2023-01-21T13:17:11.370Z,64.17
2023-01-21T13:18:21.347Z,62.89
2023-01-21T13:19:23.462Z,61.31
2023-01-21T13:20:26.187Z,60.01
2023-01-21T13:21:54.003Z,58.85
2023-01-21T13:23:07.186Z,57.76
2023-01-21T13:24:23.945Z,58.60
2023-01-21T13:25:45.411Z,60.01
2023-01-21T13:27:12.097Z,61.75
2023-01-21T13:28:26.526Z,63.59
2023-01-21T13:29:37.326Z,64.48
2023-01-21T13:31:02.537Z,63.75
2023-01-21T13:32:28.453Z,62.03
2023-01-21T13:33:47.606Z,60.46
2023-01-21T13:35:07.015Z,58.95
2023-01-21T13:36:33.375Z,57.80
2023-01-21T13:37:53.062Z,58.66
2023-01-21T13:39:17.446Z,60.26
2023-01-21T13:40:48.946Z,61.83
2023-01-21T13:41:59.818Z,63.39
2023-01-21T13:43:26.087Z,64.04
2023-01-21T13:44:46.783Z,63.26
2023-01-21T13:46:04.371Z,61.66
2023-01-21T13:47:29.804Z,60.09
2023-01-21T13:49:03.753Z,58.68
2023-01-21T13:50:30.492Z,57.82
2023-01-21T13:51:36.781Z,59.06
2023-01-21T13:54:55.449Z,62.75
2023-01-21T13:56:40.896Z,64.16
2023-01-21T13:58:04.430Z,63.63
2023-01-21T13:59:42.289Z,62.15
2023-01-21T14:01:09.075Z,60.28
2023-01-21T14:02:19.712Z,58.82
2023-01-21T14:03:31.893Z,57.83
2023-01-21T14:04:51.952Z,58.22
2023-01-21T14:06:25.057Z,59.59
2023-01-21T14:07:47.038Z,61.55
2023-01-21T14:09:03.802Z,63.22
2023-01-21T14:10:23.301Z,64.32
2023-01-21T14:11:41.268Z,63.70
2023-01-21T14:13:05.025Z,62.29
2023-01-21T14:14:26.918Z,60.63
2023-01-21T14:15:34.624Z,59.07
2023-01-21T14:16:52.884Z,57.70
2023-01-21T14:18:25.733Z,57.94
2023-01-21T14:19:52.000Z,59.47
2023-01-21T14:21:08.820Z,61.24
2023-01-21T14:22:31.926Z,62.76
2023-01-21T14:24:00.032Z,64.09
2023-01-21T14:25:08.143Z,63.63
2023-01-21T14:26:43.936Z,62.41
2023-01-21T14:27:54.869Z,60.56
2023-01-21T14:29:18.142Z,59.36
2023-01-21T14:30:45.838Z,57.91
2023-01-21T14:31:55.465Z,58.16
2023-01-21T14:33:08.714Z,59.36
2023-01-21T14:34:22.989Z,60.76
2023-01-21T14:35:36.396Z,62.21
2023-01-21T14:37:01.400Z,63.61
2023-01-21T14:38:49.311Z,64.09
2023-01-21T14:40:30.515Z,62.42
2023-01-21T14:42:04.714Z,60.23
2023-01-21T14:43:06.918Z,58.43